Time;durP1;ratioP1;P1;durP2;ratioP2;P2;SDS_P1;SDS_P2;PMS_P1;PMS_P2;Temp;Humidity;BMP_temperature;BMP_pressure;BME280_temperature;BME280_humidity;BME280_pressure;Samples;Min_cycle;Max_cycle;Signal;HPM_P1;HPM_P2
2022/06/08 00:00:44;;;;;;;;;;;10.20;99.90;;;;;;5036100;28;19917;-75
2022/06/08 00:03:11;;;;;;;;;;;10.20;99.90;;;;;;5033984;28;20367;-75
2022/06/08 00:05:36;;;;;;;;;;;10.10;99.90;;;;;;5035485;28;19924;-75
2022/06/08 00:08:02;;;;;;;;;;;10.10;99.90;;;;;;5034067;28;19917;-76
2022/06/08 00:10:27;;;;;;;;;;;10.10;99.90;;;;;;5035671;28;19917;-75
2022/06/08 00:12:53;;;;;;;;;;;10.10;99.90;;;;;;5035088;28;19917;-75
2022/06/08 00:15:18;;;;;;;;;;;10.00;99.90;;;;;;5033854;28;20366;-74
2022/06/08 00:17:44;;;;;;;;;;;10.00;99.90;;;;;;5034967;28;19917;-75
2022/06/08 00:20:10;;;;;;;;;;;10.00;99.90;;;;;;5034941;28;19917;-75
2022/06/08 00:22:35;;;;;;;;;;;9.90;99.90;;;;;;5017109;28;19917;-75
2022/06/08 00:25:01;;;;;;;;;;;9.90;99.90;;;;;;5034844;28;20367;-76
2022/06/08 00:27:27;;;;;;;;;;;9.80;99.90;;;;;;5035007;28;19924;-75
2022/06/08 00:29:53;;;;;;;;;;;9.80;99.90;;;;;;5035427;28;19972;-75
2022/06/08 00:32:18;;;;;;;;;;;9.80;99.90;;;;;;5018146;28;19924;-75
2022/06/08 00:34:44;;;;;;;;;;;9.70;99.90;;;;;;5018066;28;19924;-76
2022/06/08 00:37:10;;;;;;;;;;;9.70;99.90;;;;;;5033474;28;19923;-75
2022/06/08 00:39:35;;;;;;;;;;;9.70;99.90;;;;;;5034785;28;19917;-76
2022/06/08 00:42:02;;;;;;;;;;;9.70;99.90;;;;;;5034453;28;19917;-77
2022/06/08 00:44:30;;;;;;;;;;;9.70;99.90;;;;;;5033345;28;19924;-75
2022/06/08 00:46:55;;;;;;;;;;;9.60;99.90;;;;;;5034791;28;20273;-75
2022/06/08 00:49:21;;;;;;;;;;;9.60;99.90;;;;;;5035805;28;19917;-75
2022/06/08 00:51:47;;;;;;;;;;;9.60;99.90;;;;;;5037113;28;20067;-75
2022/06/08 00:54:14;;;;;;;;;;;9.60;99.90;;;;;;5033570;28;20349;-74
2022/06/08 00:56:41;;;;;;;;;;;9.70;99.90;;;;;;5048234;28;19923;-73
2022/06/08 00:59:06;;;;;;;;;;;9.60;99.90;;;;;;5056635;28;19905;-72
2022/06/08 01:01:32;;;;;;;;;;;9.70;99.90;;;;;;5022983;28;19917;-75
2022/06/08 01:04:04;;;;;;;;;;;9.70;99.90;;;;;;5024736;28;20330;-75
2022/06/08 01:06:30;;;;;;;;;;;9.70;99.90;;;;;;5034441;28;19924;-75
2022/06/08 01:08:55;;;;;;;;;;;9.60;99.90;;;;;;5034691;28;20245;-75
2022/06/08 01:11:50;;;;;;;;;;;9.60;99.90;;;;;;5034753;28;19921;-75
2022/06/08 01:14:16;;;;;;;;;;;9.60;99.90;;;;;;5021678;28;19924;-75
2022/06/08 01:16:59;;;;;;;;;;;9.60;99.90;;;;;;5034646;28;19917;-75
2022/06/08 01:19:25;;;;;;;;;;;9.60;99.90;;;;;;5034135;28;19917;-75
2022/06/08 01:21:51;;;;;;;;;;;9.60;99.90;;;;;;5033403;28;20257;-75
2022/06/08 01:24:17;;;;;;;;;;;9.60;99.90;;;;;;5034001;28;19917;-75
2022/06/08 01:26:43;;;;;;;;;;;9.60;99.90;;;;;;5033850;28;20265;-75
2022/06/08 01:29:21;;;;;;;;;;;9.60;99.90;;;;;;5017344;28;20260;-75
2022/06/08 01:32:10;;;;;;;;;;;9.50;99.90;;;;;;5032862;28;19972;-75
2022/06/08 01:34:50;;;;;;;;;;;9.60;99.90;;;;;;5025657;28;19917;-75
2022/06/08 01:37:18;;;;;;;;;;;9.60;99.90;;;;;;5016380;28;19971;-75
2022/06/08 01:39:47;;;;;;;;;;;9.60;99.90;;;;;;5033984;28;19917;-76
2022/06/08 01:42:14;;;;;;;;;;;9.70;99.90;;;;;;5033921;28;19917;-75
2022/06/08 01:44:39;;;;;;;;;;;9.60;99.90;;;;;;5032731;28;19917;-75
2022/06/08 01:47:21;;;;;;;;;;;9.70;99.90;;;;;;5017190;28;19917;-74
2022/06/08 01:49:52;;;;;;;;;;;9.70;99.90;;;;;;5032608;28;19970;-76
2022/06/08 01:52:20;;;;;;;;;;;9.70;99.90;;;;;;5032862;28;20352;-75
2022/06/08 01:54:54;;;;;;;;;;;9.80;99.90;;;;;;5032499;28;19917;-80
2022/06/08 01:57:38;;;;;;;;;;;9.80;99.90;;;;;;5032780;28;19917;-74
2022/06/08 02:00:06;;;;;;;;;;;9.80;99.90;;;;;;5034275;28;19917;-74
2022/06/08 02:02:34;;;;;;;;;;;9.80;99.90;;;;;;5032486;28;20261;-75
2022/06/08 02:05:12;;;;;;;;;;;9.90;99.90;;;;;;5016694;28;20379;-75
2022/06/08 02:07:42;;;;;;;;;;;9.90;99.90;;;;;;5038278;28;20013;-77
2022/06/08 02:10:16;;;;;;;;;;;9.90;99.90;;;;;;5036311;28;19923;-75
2022/06/08 02:12:43;;;;;;;;;;;9.90;99.90;;;;;;5036191;28;19924;-75
2022/06/08 02:15:13;;;;;;;;;;;9.90;99.90;;;;;;5019584;28;20256;-75
2022/06/08 02:17:41;;;;;;;;;;;9.90;99.90;;;;;;5019916;28;20332;-75
2022/06/08 02:20:12;;;;;;;;;;;9.90;99.90;;;;;;5035974;28;19967;-75
2022/06/08 02:22:39;;;;;;;;;;;9.90;99.90;;;;;;5037146;28;19917;-75
2022/06/08 02:25:23;;;;;;;;;;;9.90;99.90;;;;;;5037238;28;20272;-75
2022/06/08 02:27:53;;;;;;;;;;;9.90;99.90;;;;;;5036934;28;20012;-75
2022/06/08 02:30:19;;;;;;;;;;;9.90;99.90;;;;;;5037195;28;19947;-75
2022/06/08 02:35:49;;;;;;;;;;;9.90;99.90;;;;;;5037457;28;20273;-75
2022/06/08 02:38:15;;;;;;;;;;;9.90;99.90;;;;;;5058394;28;19923;-70
2022/06/08 02:40:42;;;;;;;;;;;9.90;99.90;;;;;;5060213;28;19936;-70
2022/06/08 02:43:10;;;;;;;;;;;9.90;99.90;;;;;;5059065;28;19917;-69
2022/06/08 02:45:37;;;;;;;;;;;10.00;99.90;;;;;;5051393;28;19917;-75
2022/06/08 02:48:04;;;;;;;;;;;10.00;99.90;;;;;;5035836;28;19971;-75
2022/06/08 02:50:30;;;;;;;;;;;10.00;99.90;;;;;;5019183;28;19921;-75
2022/06/08 02:53:25;;;;;;;;;;;10.00;99.90;;;;;;5037419;28;19916;-75
2022/06/08 02:55:52;;;;;;;;;;;10.00;99.90;;;;;;5005725;28;19917;-75
2022/06/08 02:58:23;;;;;;;;;;;10.00;99.90;;;;;;5035926;28;19917;-73
2022/06/08 03:00:51;;;;;;;;;;;10.10;99.90;;;;;;5036786;28;19921;-75
2022/06/08 03:03:21;;;;;;;;;;;10.20;99.90;;;;;;5035039;28;19939;-75
2022/06/08 03:05:51;;;;;;;;;;;10.10;99.90;;;;;;5036384;28;19917;-75
2022/06/08 03:08:24;;;;;;;;;;;10.10;99.90;;;;;;5037099;28;19917;-75
2022/06/08 03:10:50;;;;;;;;;;;10.10;99.90;;;;;;5035100;28;20305;-76
2022/06/08 03:13:24;;;;;;;;;;;10.20;99.90;;;;;;5035277;28;20016;-75
2022/06/08 03:15:54;;;;;;;;;;;10.20;99.90;;;;;;5035006;28;19917;-75
2022/06/08 03:18:20;;;;;;;;;;;10.10;99.90;;;;;;5035508;28;19917;-75
2022/06/08 03:20:46;;;;;;;;;;;10.20;99.90;;;;;;5034922;28;19924;-75
2022/06/08 03:23:11;;;;;;;;;;;10.10;99.90;;;;;;5035416;28;19917;-75
2022/06/08 03:25:37;;;;;;;;;;;10.10;99.90;;;;;;5035971;28;19917;-75
2022/06/08 03:28:02;;;;;;;;;;;10.10;99.90;;;;;;5034525;28;19917;-75
2022/06/08 03:30:28;;;;;;;;;;;10.10;99.90;;;;;;5018842;28;19917;-74
2022/06/08 03:32:54;;;;;;;;;;;10.20;99.90;;;;;;5035852;28;20265;-75
2022/06/08 03:35:19;;;;;;;;;;;10.20;99.90;;;;;;5036583;28;20007;-75
2022/06/08 03:37:45;;;;;;;;;;;10.20;99.90;;;;;;5036268;28;19917;-75
2022/06/08 03:40:10;;;;;;;;;;;10.20;99.90;;;;;;5035870;28;20011;-75
2022/06/08 03:42:37;;;;;;;;;;;10.20;99.90;;;;;;5036241;28;19923;-75
2022/06/08 03:45:03;;;;;;;;;;;10.20;99.90;;;;;;5035867;28;19997;-76
2022/06/08 03:47:29;;;;;;;;;;;10.30;99.90;;;;;;5035719;28;20339;-75
2022/06/08 03:49:55;;;;;;;;;;;10.30;99.90;;;;;;5034497;28;19963;-75
2022/06/08 03:52:22;;;;;;;;;;;10.30;99.90;;;;;;5036620;28;19917;-75
2022/06/08 03:54:50;;;;;;;;;;;10.40;99.90;;;;;;5037619;28;19960;-75
2022/06/08 03:57:16;;;;;;;;;;;10.40;99.90;;;;;;5037895;28;19917;-74
2022/06/08 03:59:42;;;;;;;;;;;10.40;99.90;;;;;;5036871;28;20261;-75
2022/06/08 04:02:08;;;;;;;;;;;10.50;99.90;;;;;;5035577;28;20383;-76
2022/06/08 04:04:33;;;;;;;;;;;10.60;99.90;;;;;;5035972;28;19917;-76
2022/06/08 04:06:59;;;;;;;;;;;10.60;99.90;;;;;;5037169;28;19917;-75
2022/06/08 04:09:24;;;;;;;;;;;10.80;99.90;;;;;;5037988;28;19943;-74
2022/06/08 04:11:50;;;;;;;;;;;10.90;99.90;;;;;;5036668;28;20390;-75
2022/06/08 04:14:16;;;;;;;;;;;11.00;99.90;;;;;;5046456;28;19947;-71
2022/06/08 04:16:41;;;;;;;;;;;11.20;99.90;;;;;;5041220;28;20256;-71
2022/06/08 04:19:07;;;;;;;;;;;11.30;99.90;;;;;;5057348;28;19917;-80
2022/06/08 04:21:32;;;;;;;;;;;11.40;99.90;;;;;;5038104;28;19917;-75
2022/06/08 04:24:00;;;;;;;;;;;11.50;99.90;;;;;;5036550;28;19925;-75
2022/06/08 04:26:25;;;;;;;;;;;11.60;99.90;;;;;;5035305;28;19924;-75
2022/06/08 04:28:51;;;;;;;;;;;11.70;99.90;;;;;;5017494;28;19916;-75
2022/06/08 04:31:16;;;;;;;;;;;11.70;99.90;;;;;;5035340;28;19917;-74
2022/06/08 04:33:42;;;;;;;;;;;11.80;99.90;;;;;;5033886;28;19940;-72
2022/06/08 04:36:08;;;;;;;;;;;11.80;99.90;;;;;;5035182;28;20296;-73
2022/06/08 04:38:33;;;;;;;;;;;11.90;99.90;;;;;;5034925;28;20265;-74
2022/06/08 04:40:59;;;;;;;;;;;12.00;99.90;;;;;;5034407;28;20289;-74
2022/06/08 04:43:25;;;;;;;;;;;12.00;99.90;;;;;;5034899;28;19976;-74
2022/06/08 04:45:50;;;;;;;;;;;12.10;99.90;;;;;;5035293;28;20285;-74
2022/06/08 04:48:16;;;;;;;;;;;12.20;99.90;;;;;;5000733;28;20536;-74
2022/06/08 04:50:41;;;;;;;;;;;12.20;99.90;;;;;;5034831;28;20272;-76
2022/06/08 04:53:07;;;;;;;;;;;12.30;99.90;;;;;;5034511;28;20341;-76
2022/06/08 04:55:32;;;;;;;;;;;12.30;99.90;;;;;;5034906;28;19917;-77
2022/06/08 04:57:58;;;;;;;;;;;12.30;99.90;;;;;;5034607;28;20037;-75
2022/06/08 05:00:24;;;;;;;;;;;12.40;99.90;;;;;;5034211;28;20363;-76
2022/06/08 05:02:49;;;;;;;;;;;12.40;99.90;;;;;;5034471;28;20012;-76
2022/06/08 05:05:15;;;;;;;;;;;12.40;99.90;;;;;;5034823;28;19984;-77
2022/06/08 05:07:41;;;;;;;;;;;12.50;99.90;;;;;;5034161;28;20420;-74
2022/06/08 05:10:06;;;;;;;;;;;12.50;99.90;;;;;;5033582;28;19917;-73
2022/06/08 05:12:32;;;;;;;;;;;12.50;99.90;;;;;;5034133;28;19917;-74
2022/06/08 05:14:57;;;;;;;;;;;12.50;99.90;;;;;;5016834;28;19917;-74
2022/06/08 05:17:24;;;;;;;;;;;12.70;99.90;;;;;;5034518;28;19917;-74
2022/06/08 05:19:49;;;;;;;;;;;12.70;99.90;;;;;;5034105;28;19917;-74
2022/06/08 05:22:15;;;;;;;;;;;12.80;99.90;;;;;;5034554;28;19987;-75
2022/06/08 05:24:40;;;;;;;;;;;12.80;99.90;;;;;;5034081;28;19972;-75
2022/06/08 05:27:06;;;;;;;;;;;12.90;99.90;;;;;;5033813;28;20376;-75
2022/06/08 05:29:31;;;;;;;;;;;13.00;99.90;;;;;;5032756;28;19916;-75
2022/06/08 05:31:57;;;;;;;;;;;13.00;99.90;;;;;;5033954;28;19921;-75
2022/06/08 05:34:22;;;;;;;;;;;13.10;99.90;;;;;;5033875;28;19921;-75
2022/06/08 05:36:48;;;;;;;;;;;13.20;99.90;;;;;;5033862;28;19921;-74
2022/06/08 05:39:13;;;;;;;;;;;13.20;99.90;;;;;;5033845;28;19921;-75
2022/06/08 05:41:39;;;;;;;;;;;13.20;99.90;;;;;;5037434;28;19917;-76
2022/06/08 05:44:04;;;;;;;;;;;13.30;99.90;;;;;;5038346;28;20023;-75
2022/06/08 05:46:30;;;;;;;;;;;13.40;99.90;;;;;;5043063;28;19987;-75
2022/06/08 05:48:55;;;;;;;;;;;13.50;99.90;;;;;;5026832;28;19921;-74
2022/06/08 05:51:21;;;;;;;;;;;13.60;99.90;;;;;;5029764;28;19905;-79
2022/06/08 05:53:46;;;;;;;;;;;13.70;99.90;;;;;;5062286;28;19913;-75
2022/06/08 05:56:12;;;;;;;;;;;13.80;99.90;;;;;;5045438;28;19961;-73
2022/06/08 05:58:37;;;;;;;;;;;13.90;99.90;;;;;;5055081;28;19940;-75
2022/06/08 06:01:03;;;;;;;;;;;14.00;99.90;;;;;;5038036;28;20277;-75
2022/06/08 06:03:29;;;;;;;;;;;14.10;99.90;;;;;;5037637;28;20327;-74
2022/06/08 06:05:54;;;;;;;;;;;14.20;99.90;;;;;;5037654;28;20380;-75
2022/06/08 06:08:20;;;;;;;;;;;14.20;99.90;;;;;;5037700;28;19917;-75
2022/06/08 06:10:46;;;;;;;;;;;14.30;99.90;;;;;;5020350;28;20345;-75
2022/06/08 06:13:11;;;;;;;;;;;14.40;99.90;;;;;;5020044;28;20020;-75
2022/06/08 06:15:37;;;;;;;;;;;14.50;99.90;;;;;;5037959;28;20379;-75
2022/06/08 06:18:03;;;;;;;;;;;14.60;99.90;;;;;;5037548;28;19940;-74
2022/06/08 06:20:31;;;;;;;;;;;14.70;99.90;;;;;;5037250;28;19917;-75
2022/06/08 06:22:57;;;;;;;;;;;14.80;99.90;;;;;;5037144;28;19923;-75
2022/06/08 06:25:22;;;;;;;;;;;14.90;99.90;;;;;;5019757;28;20011;-75
2022/06/08 06:27:48;;;;;;;;;;;15.00;99.90;;;;;;5019351;28;19921;-75
2022/06/08 06:30:14;;;;;;;;;;;15.00;99.90;;;;;;5037165;28;19921;-75
2022/06/08 06:32:40;;;;;;;;;;;15.00;99.90;;;;;;5037658;28;19917;-75
2022/06/08 06:35:08;;;;;;;;;;;15.00;99.90;;;;;;5035827;28;19917;-75
2022/06/08 06:37:33;;;;;;;;;;;15.10;99.90;;;;;;5037560;28;19917;-75
2022/06/08 06:39:59;;;;;;;;;;;15.10;99.90;;;;;;5036051;28;19924;-74
2022/06/08 06:42:25;;;;;;;;;;;15.10;99.90;;;;;;5020524;28;19984;-74
2022/06/08 06:44:51;;;;;;;;;;;15.20;99.90;;;;;;5035972;28;19917;-75
2022/06/08 06:47:16;;;;;;;;;;;15.20;99.90;;;;;;5019300;28;19923;-75
2022/06/08 06:49:42;;;;;;;;;;;15.30;99.90;;;;;;5036424;28;19924;-76
2022/06/08 06:52:09;;;;;;;;;;;15.40;99.90;;;;;;5035157;28;19960;-75
2022/06/08 06:54:36;;;;;;;;;;;15.50;99.90;;;;;;5036697;28;19983;-74
2022/06/08 06:57:01;;;;;;;;;;;15.70;99.90;;;;;;5036643;28;19967;-73
2022/06/08 06:59:28;;;;;;;;;;;15.70;99.90;;;;;;5036708;28;19917;-74
2022/06/08 07:01:54;;;;;;;;;;;15.80;99.90;;;;;;5036480;28;19921;-74
2022/06/08 07:04:19;;;;;;;;;;;15.90;99.90;;;;;;5037077;28;19917;-74
2022/06/08 07:06:45;;;;;;;;;;;15.90;99.90;;;;;;5036696;28;19999;-75
2022/06/08 07:09:11;;;;;;;;;;;16.00;99.90;;;;;;5018729;28;19916;-74
2022/06/08 07:11:40;;;;;;;;;;;16.20;99.90;;;;;;5036289;28;19921;-75
2022/06/08 07:14:06;;;;;;;;;;;16.30;99.90;;;;;;5035142;28;20020;-74
2022/06/08 07:16:32;;;;;;;;;;;16.50;99.90;;;;;;5035336;28;19924;-75
2022/06/08 07:18:58;;;;;;;;;;;16.60;99.90;;;;;;5019225;28;19917;-74
2022/06/08 07:21:23;;;;;;;;;;;16.70;99.90;;;;;;5035460;28;19964;-74
2022/06/08 07:23:49;;;;;;;;;;;16.80;99.90;;;;;;5018607;28;19917;-74
2022/06/08 07:26:14;;;;;;;;;;;16.80;99.90;;;;;;5018706;28;19921;-73
2022/06/08 07:28:40;;;;;;;;;;;16.80;99.90;;;;;;5034680;28;19917;-75
2022/06/08 07:31:05;;;;;;;;;;;16.80;99.90;;;;;;5037747;28;19924;-70
2022/06/08 07:33:33;;;;;;;;;;;16.80;99.90;;;;;;5047032;28;19971;-71
2022/06/08 07:35:59;;;;;;;;;;;16.80;99.90;;;;;;5047480;28;19917;-70
2022/06/08 07:38:25;;;;;;;;;;;16.90;99.90;;;;;;5044343;28;19974;-71
2022/06/08 07:40:51;;;;;;;;;;;16.90;99.90;;;;;;5041891;28;20015;-73
2022/06/08 07:43:16;;;;;;;;;;;16.90;99.90;;;;;;5035831;28;19917;-74
2022/06/08 07:45:42;;;;;;;;;;;16.90;99.90;;;;;;5035666;28;19917;-74
2022/06/08 07:50:52;;;;;;;;;;;17.00;99.90;;;;;;5036518;28;20244;-74
2022/06/08 07:53:18;;;;;;;;;;;17.10;99.90;;;;;;5035939;28;19917;-74
2022/06/08 07:55:44;;;;;;;;;;;17.10;99.90;;;;;;5036314;28;20058;-75
2022/06/08 07:58:10;;;;;;;;;;;17.20;99.90;;;;;;5035383;28;19967;-73
2022/06/08 08:00:35;;;;;;;;;;;17.40;99.90;;;;;;5017834;28;20026;-75
2022/06/08 08:03:01;;;;;;;;;;;17.50;99.90;;;;;;5018324;28;19924;-76
2022/06/08 08:05:27;;;;;;;;;;;17.60;99.90;;;;;;5035295;28;19968;-74
2022/06/08 08:07:52;;;;;;;;;;;17.80;99.90;;;;;;5034640;28;19917;-73
2022/06/08 08:10:19;;;;;;;;;;;17.90;99.90;;;;;;5035845;28;20371;-75
2022/06/08 08:12:46;;;;;;;;;;;18.00;99.90;;;;;;5035125;28;19921;-75
2022/06/08 08:15:12;;;;;;;;;;;18.20;99.90;;;;;;5018574;28;19917;-75
2022/06/08 08:17:38;;;;;;;;;;;18.20;99.90;;;;;;5034440;28;20253;-73
2022/06/08 08:20:04;;;;;;;;;;;18.30;99.90;;;;;;5034916;28;19963;-73
2022/06/08 08:22:30;;;;;;;;;;;18.40;99.90;;;;;;5034991;28;19917;-74
2022/06/08 08:24:55;;;;;;;;;;;18.40;99.90;;;;;;5035146;28;20349;-73
2022/06/08 08:27:21;;;;;;;;;;;18.40;99.90;;;;;;5034143;28;20341;-73
2022/06/08 08:29:47;;;;;;;;;;;18.50;99.90;;;;;;5034771;28;20357;-75
2022/06/08 08:32:12;;;;;;;;;;;18.50;99.90;;;;;;5033580;28;19923;-73
2022/06/08 08:34:38;;;;;;;;;;;18.40;99.90;;;;;;5035219;28;20253;-75
2022/06/08 08:37:03;;;;;;;;;;;18.40;99.90;;;;;;5034615;28;20309;-75
2022/06/08 08:39:29;;;;;;;;;;;18.40;99.90;;;;;;5034684;28;19924;-74
2022/06/08 08:44:42;;;;;;;;;;;18.60;99.90;;;;;;5033810;28;19940;-75
2022/06/08 08:47:10;;;;;;;;;;;18.80;99.90;;;;;;5034445;28;19917;-75
2022/06/08 08:49:36;;;;;;;;;;;18.90;99.90;;;;;;5033348;28;19924;-75
2022/06/08 08:52:04;;;;;;;;;;;19.00;99.90;;;;;;5034333;28;19917;-75
2022/06/08 08:54:34;;;;;;;;;;;19.10;99.90;;;;;;5017038;28;19966;-74
2022/06/08 08:57:04;;;;;;;;;;;19.30;99.90;;;;;;5034504;28;19973;-75
2022/06/08 08:59:33;;;;;;;;;;;19.40;99.90;;;;;;5017479;28;20323;-75
2022/06/08 09:01:58;;;;;;;;;;;19.50;99.90;;;;;;5016756;28;19917;-73
2022/06/08 09:04:28;;;;;;;;;;;19.50;99.90;;;;;;5034574;28;19967;-75
2022/06/08 09:06:53;;;;;;;;;;;19.50;99.90;;;;;;5034203;28;19917;-75
2022/06/08 09:09:21;;;;;;;;;;;19.50;99.90;;;;;;5033159;28;19923;-74
2022/06/08 09:11:47;;;;;;;;;;;19.50;99.90;;;;;;5016850;28;19917;-75
2022/06/08 09:14:15;;;;;;;;;;;19.60;99.90;;;;;;5032954;28;20059;-75
2022/06/08 09:16:45;;;;;;;;;;;19.60;99.90;;;;;;5038922;28;19917;-71
2022/06/08 09:19:32;;;;;;;;;;;19.70;99.90;;;;;;5041538;28;20099;-71
2022/06/08 09:22:14;;;;;;;;;;;19.80;99.90;;;;;;5039842;28;19924;-71
2022/06/08 09:24:50;;;;;;;;;;;19.80;99.90;;;;;;5039497;28;19924;-73
2022/06/08 09:27:22;;;;;;;;;;;19.80;99.90;;;;;;5034126;28;19960;-74
2022/06/08 09:30:06;;;;;;;;;;;19.90;99.90;;;;;;5034038;28;20365;-73
2022/06/08 09:32:39;;;;;;;;;;;19.90;99.90;;;;;;5034584;28;19917;-75
2022/06/08 09:35:06;;;;;;;;;;;19.90;99.90;;;;;;5034705;28;19943;-74
2022/06/08 09:37:31;;;;;;;;;;;19.90;99.90;;;;;;5016896;28;19917;-74
2022/06/08 09:40:01;;;;;;;;;;;20.00;99.90;;;;;;5032815;28;20047;-74
2022/06/08 09:42:45;;;;;;;;;;;20.00;99.90;;;;;;5033247;28;19917;-74
2022/06/08 09:45:49;;;;;;;;;;;20.10;99.90;;;;;;5034477;28;19917;-73
2022/06/08 09:51:33;;;;;;;;;;;20.00;99.90;;;;;;4959098;28;20009;-74
2022/06/08 09:54:04;;;;;;;;;;;19.90;99.90;;;;;;5022148;28;19917;-75
2022/06/08 09:56:43;;;;;;;;;;;19.70;99.90;;;;;;5034609;28;19923;-74
2022/06/08 09:59:27;;;;;;;;;;;19.70;99.90;;;;;;5033416;28;20373;-75
2022/06/08 10:01:55;;;;;;;;;;;19.70;99.90;;;;;;5033627;28;19917;-75
2022/06/08 10:04:42;;;;;;;;;;;19.70;99.90;;;;;;5032426;28;20262;-74
2022/06/08 10:07:10;;;;;;;;;;;19.80;99.90;;;;;;5033822;28;19943;-73
2022/06/08 10:09:51;;;;;;;;;;;19.80;99.90;;;;;;5033694;28;19917;-75
2022/06/08 10:12:28;;;;;;;;;;;19.90;99.90;;;;;;5033574;28;20008;-74
2022/06/08 10:14:56;;;;;;;;;;;19.90;99.90;;;;;;5033643;28;19927;-75
2022/06/08 10:17:23;;;;;;;;;;;20.00;99.90;;;;;;5033617;28;19917;-74
2022/06/08 10:19:54;;;;;;;;;;;20.00;99.90;;;;;;5032413;28;19927;-75
2022/06/08 10:22:20;;;;;;;;;;;20.00;99.90;;;;;;5033930;28;19971;-74
2022/06/08 10:24:53;;;;;;;;;;;20.00;99.90;;;;;;5032916;28;19917;-74
2022/06/08 10:27:29;;;;;;;;;;;20.00;99.90;;;;;;5017208;28;19917;-75
2022/06/08 10:30:14;;;;;;;;;;;20.10;99.90;;;;;;5036124;28;20345;-74
2022/06/08 10:33:00;;;;;;;;;;;20.00;99.90;;;;;;5037059;28;19917;-74
2022/06/08 10:35:29;;;;;;;;;;;20.00;99.90;;;;;;5036359;28;20303;-74
2022/06/08 10:37:55;;;;;;;;;;;20.00;99.90;;;;;;5036012;28;19971;-74
2022/06/08 10:40:22;;;;;;;;;;;20.10;99.90;;;;;;5037373;28;19917;-74
2022/06/08 10:42:47;;;;;;;;;;;20.10;99.90;;;;;;5036799;28;19917;-75
2022/06/08 10:45:19;;;;;;;;;;;20.20;99.90;;;;;;5036750;28;19917;-74
2022/06/08 10:47:52;;;;;;;;;;;20.10;99.90;;;;;;5036791;28;19923;-74
2022/06/08 10:50:22;;;;;;;;;;;20.10;99.90;;;;;;5035493;28;19963;-75
2022/06/08 10:52:48;;;;;;;;;;;20.00;99.90;;;;;;5037245;28;19921;-75
2022/06/08 10:55:13;;;;;;;;;;;19.90;99.90;;;;;;5035441;28;20347;-74
2022/06/08 10:57:42;;;;;;;;;;;19.80;99.90;;;;;;5036592;28;20431;-75
2022/06/08 11:00:19;;;;;;;;;;;19.70;99.90;;;;;;5036505;28;19924;-75
2022/06/08 11:02:48;;;;;;;;;;;19.60;99.90;;;;;;5036619;28;20323;-74
2022/06/08 11:05:20;;;;;;;;;;;19.50;99.90;;;;;;5036651;28;19936;-73
2022/06/08 11:08:12;;;;;;;;;;;19.50;99.90;;;;;;5020512;28;19924;-70
2022/06/08 11:10:44;;;;;;;;;;;19.40;99.90;;;;;;5037941;28;19917;-73
2022/06/08 11:13:29;;;;;;;;;;;19.40;99.90;;;;;;5044312;28;20234;-77
2022/06/08 11:16:15;;;;;;;;;;;19.30;99.90;;;;;;5042970;28;19921;-73
2022/06/08 11:19:00;;;;;;;;;;;19.30;99.90;;;;;;5036442;28;19957;-75
2022/06/08 11:21:44;;;;;;;;;;;19.30;99.90;;;;;;5036092;28;19924;-73
2022/06/08 11:24:17;;;;;;;;;;;19.30;99.90;;;;;;5035974;28;19924;-75
2022/06/08 11:26:45;;;;;;;;;;;19.20;99.90;;;;;;5018407;28;19917;-76
2022/06/08 11:29:17;;;;;;;;;;;19.20;99.90;;;;;;5036079;28;19947;-77
2022/06/08 11:31:42;;;;;;;;;;;19.10;99.90;;;;;;5036438;28;19921;-76
2022/06/08 11:34:20;;;;;;;;;;;19.10;99.90;;;;;;5036300;28;20411;-74
2022/06/08 11:36:55;;;;;;;;;;;19.00;99.90;;;;;;5018177;28;19968;-75
2022/06/08 11:39:25;;;;;;;;;;;18.90;99.90;;;;;;5035453;28;19917;-75
2022/06/08 11:41:58;;;;;;;;;;;18.90;99.90;;;;;;5034542;28;19956;-75
2022/06/08 11:44:23;;;;;;;;;;;18.90;99.90;;;;;;5018619;28;20392;-75
2022/06/08 11:46:50;;;;;;;;;;;18.90;99.90;;;;;;5034625;28;19923;-74
2022/06/08 11:49:26;;;;;;;;;;;18.90;99.90;;;;;;5035797;28;19917;-76
2022/06/08 11:51:51;;;;;;;;;;;18.90;99.90;;;;;;5035942;28;19917;-76
2022/06/08 11:54:21;;;;;;;;;;;18.90;99.90;;;;;;5017991;28;20011;-76
2022/06/08 11:57:07;;;;;;;;;;;19.00;99.90;;;;;;5035072;28;19940;-76
2022/06/08 11:59:36;;;;;;;;;;;19.20;99.90;;;;;;5024944;28;19964;-76
2022/06/08 12:02:02;;;;;;;;;;;19.40;99.90;;;;;;5034905;28;19940;-76
2022/06/08 12:04:30;;;;;;;;;;;19.60;99.90;;;;;;5035321;28;20360;-76
2022/06/08 12:06:56;;;;;;;;;;;19.80;99.90;;;;;;5034386;28;19917;-76
2022/06/08 12:09:23;;;;;;;;;;;19.80;99.90;;;;;;5034271;28;19924;-77
2022/06/08 12:12:00;;;;;;;;;;;19.80;99.90;;;;;;5018267;28;19916;-78
2022/06/08 12:14:25;;;;;;;;;;;19.70;99.90;;;;;;5018164;28;19971;-76
2022/06/08 12:16:51;;;;;;;;;;;19.50;99.90;;;;;;5035522;28;19921;-76
2022/06/08 12:19:18;;;;;;;;;;;19.40;99.90;;;;;;5035210;28;19917;-76
2022/06/08 12:21:45;;;;;;;;;;;19.20;99.90;;;;;;5035513;28;20051;-76
2022/06/08 12:24:11;;;;;;;;;;;19.00;99.90;;;;;;5034255;28;20316;-76
2022/06/08 12:26:36;;;;;;;;;;;18.80;99.90;;;;;;5034426;28;19917;-76
2022/06/08 12:29:05;;;;;;;;;;;18.70;99.90;;;;;;5035738;28;19916;-76
2022/06/08 12:31:31;;;;;;;;;;;18.60;99.90;;;;;;5033748;28;19917;-77
2022/06/08 12:33:57;;;;;;;;;;;18.50;99.90;;;;;;5035730;28;19971;-77
2022/06/08 12:36:24;;;;;;;;;;;18.40;99.90;;;;;;5033570;28;19924;-77
2022/06/08 12:38:58;;;;;;;;;;;18.30;99.90;;;;;;5035341;28;20312;-76
2022/06/08 12:41:37;;;;;;;;;;;18.30;99.90;;;;;;5034707;28;19925;-77
2022/06/08 12:44:07;;;;;;;;;;;18.20;99.90;;;;;;5017904;28;19921;-76
2022/06/08 12:46:34;;;;;;;;;;;18.20;99.90;;;;;;5035189;28;20011;-76
2022/06/08 12:49:04;;;;;;;;;;;18.10;99.90;;;;;;5033205;28;19924;-76
2022/06/08 12:51:29;;;;;;;;;;;18.00;99.90;;;;;;5034127;28;19917;-76
2022/06/08 12:53:55;;;;;;;;;;;18.00;99.90;;;;;;5034891;28;19924;-76
2022/06/08 12:56:22;;;;;;;;;;;17.90;99.90;;;;;;5022886;28;19924;-76
2022/06/08 12:58:51;;;;;;;;;;;17.90;99.90;;;;;;5041330;28;20007;-76
2022/06/08 13:01:17;;;;;;;;;;;17.80;99.90;;;;;;5038719;28;19924;-76
2022/06/08 13:03:43;;;;;;;;;;;17.90;99.90;;;;;;5032159;28;19917;-76
2022/06/08 13:06:08;;;;;;;;;;;17.80;99.90;;;;;;5058214;28;19905;-77
2022/06/08 13:08:34;;;;;;;;;;;17.80;99.90;;;;;;5056970;28;19935;-81
2022/06/08 13:11:00;;;;;;;;;;;17.80;99.90;;;;;;5058173;28;19980;-77
2022/06/08 13:13:28;;;;;;;;;;;17.80;99.90;;;;;;5053596;28;19924;-82
2022/06/08 13:15:54;;;;;;;;;;;17.80;99.90;;;;;;5033708;28;19925;-77
2022/06/08 13:18:23;;;;;;;;;;;17.90;99.90;;;;;;5033195;28;19917;-76
2022/06/08 13:20:49;;;;;;;;;;;17.90;99.90;;;;;;5016881;28;19917;-76
2022/06/08 13:23:15;;;;;;;;;;;18.00;99.90;;;;;;5032983;28;19939;-77
2022/06/08 13:25:41;;;;;;;;;;;18.00;99.90;;;;;;5034052;28;19917;-76
2022/06/08 13:28:11;;;;;;;;;;;18.00;99.90;;;;;;5034393;28;19921;-76
2022/06/08 13:30:38;;;;;;;;;;;18.10;99.90;;;;;;5032888;28;19917;-76
2022/06/08 13:33:03;;;;;;;;;;;18.20;99.90;;;;;;5034041;28;19927;-76
2022/06/08 13:35:29;;;;;;;;;;;18.20;99.90;;;;;;5034166;28;20252;-76
2022/06/08 13:37:55;;;;;;;;;;;18.20;99.90;;;;;;5034509;28;19921;-76
2022/06/08 13:40:24;;;;;;;;;;;18.20;99.90;;;;;;5034491;28;20460;-76
2022/06/08 13:42:50;;;;;;;;;;;18.10;99.90;;;;;;5034282;28;19917;-77
2022/06/08 13:45:21;;;;;;;;;;;18.10;99.90;;;;;;5016645;28;19924;-75
2022/06/08 13:47:48;;;;;;;;;;;18.10;99.90;;;;;;5034474;28;20273;-76
2022/06/08 13:50:14;;;;;;;;;;;18.10;99.90;;;;;;5033753;28;20273;-77
2022/06/08 13:52:40;;;;;;;;;;;18.00;99.90;;;;;;5034351;28;19924;-77
2022/06/08 13:55:26;;;;;;;;;;;18.10;99.90;;;;;;5034115;28;19917;-76
2022/06/08 13:57:52;;;;;;;;;;;18.10;99.90;;;;;;5034120;28;19924;-75
2022/06/08 14:00:18;;;;;;;;;;;18.10;99.90;;;;;;5016210;28;19917;-76
2022/06/08 14:02:46;;;;;;;;;;;18.10;99.90;;;;;;5037225;28;20246;-77
2022/06/08 14:05:12;;;;;;;;;;;18.20;99.90;;;;;;5036410;28;19970;-76
2022/06/08 14:12:59;;;;;;;;;;;18.40;99.90;;;;;;5037510;28;19917;-76
2022/06/08 14:13:11;;;;;;;;;;;18.50;99.90;;;;;;5038025;28;19917;-76
2022/06/08 14:15:36;;;;;;;;;;;18.60;99.90;;;;;;5037906;28;20357;-81
2022/06/08 14:18:03;;;;;;;;;;;18.70;99.90;;;;;;5037886;28;19940;-77
2022/06/08 14:20:38;;;;;;;;;;;18.70;99.90;;;;;;5037319;28;19917;-76
2022/06/08 14:23:04;;;;;;;;;;;18.90;99.90;;;;;;5036100;28;19921;-76
2022/06/08 14:25:30;;;;;;;;;;;18.90;99.90;;;;;;5036059;28;19917;-76
2022/06/08 14:27:55;;;;;;;;;;;18.80;99.90;;;;;;5035866;28;20264;-76
2022/06/08 14:30:21;;;;;;;;;;;18.90;99.90;;;;;;5037242;28;20260;-76
2022/06/08 14:32:49;;;;;;;;;;;18.80;99.90;;;;;;5019497;28;19921;-75
2022/06/08 14:35:16;;;;;;;;;;;18.80;99.90;;;;;;5036993;28;19925;-76
2022/06/08 14:37:41;;;;;;;;;;;18.80;99.90;;;;;;5019902;28;19916;-76
2022/06/08 14:40:11;;;;;;;;;;;18.80;99.90;;;;;;5019931;28;19917;-74